createdAt,value
2018-10-18T00:01:59.706Z,68.80
2018-10-18T00:04:27.156Z,68.80
2018-10-18T00:06:54.728Z,68.60
2018-10-18T00:09:22.218Z,68.90
2018-10-18T00:11:49.833Z,69.20
2018-10-18T00:14:17.366Z,68.90
2018-10-18T00:16:44.842Z,69.00
2018-10-18T00:19:12.369Z,69.10
2018-10-18T00:21:39.990Z,69.50
2018-10-18T00:24:07.474Z,69.30
2018-10-18T00:26:34.925Z,69.30
2018-10-18T00:29:02.474Z,69.40
2018-10-18T00:31:29.999Z,69.40
2018-10-18T00:33:57.553Z,69.30
2018-10-18T00:36:25.054Z,69.40
2018-10-18T00:38:52.566Z,69.30
2018-10-18T00:41:20.164Z,69.40
2018-10-18T00:43:47.697Z,69.60
2018-10-18T00:46:15.277Z,69.80
2018-10-18T00:48:42.854Z,69.80
2018-10-18T00:51:10.349Z,69.70
2018-10-18T00:53:37.914Z,70.30
2018-10-18T00:56:05.481Z,70.60
2018-10-18T00:58:32.987Z,70.30
2018-10-18T01:01:00.849Z,70.20
2018-10-18T01:03:28.362Z,70.20
2018-10-18T01:05:55.853Z,70.10
2018-10-18T01:08:23.298Z,70.20
2018-10-18T01:10:50.869Z,70.40
2018-10-18T01:13:18.342Z,70.20
2018-10-18T01:15:45.909Z,70.30
2018-10-18T01:18:13.466Z,71.10
2018-10-18T01:20:41.028Z,71.50
2018-10-18T01:23:08.927Z,71.60
2018-10-18T01:25:36.485Z,71.60
2018-10-18T01:28:03.976Z,71.40
2018-10-18T01:30:31.513Z,71.40
2018-10-18T01:32:59.013Z,71.70
2018-10-18T01:35:26.809Z,71.60
2018-10-18T01:37:54.353Z,71.80
2018-10-18T01:40:21.879Z,71.80
2018-10-18T01:42:49.446Z,71.70
2018-10-18T01:45:16.979Z,71.60
2018-10-18T01:47:44.459Z,71.90
2018-10-18T01:50:11.992Z,72.50
2018-10-18T01:52:39.494Z,71.90
2018-10-18T01:55:07.918Z,71.80
2018-10-18T01:57:35.449Z,71.80
2018-10-18T02:00:03.069Z,71.80
2018-10-18T02:02:30.647Z,71.90
2018-10-18T02:04:58.117Z,71.80
2018-10-18T02:07:25.688Z,72.00
2018-10-18T02:09:53.204Z,72.00
2018-10-18T02:12:20.762Z,72.30
2018-10-18T02:14:48.230Z,72.00
2018-10-18T02:17:15.778Z,72.90
2018-10-18T02:19:43.226Z,72.20
2018-10-18T02:22:10.786Z,72.30
2018-10-18T02:24:38.277Z,72.20
2018-10-18T02:27:05.855Z,72.40
2018-10-18T02:29:33.406Z,72.20
2018-10-18T02:32:00.850Z,72.30
2018-10-18T02:34:28.410Z,72.50
2018-10-18T02:36:55.909Z,72.80
2018-10-18T02:39:23.445Z,72.70
2018-10-18T02:41:51.109Z,72.90
2018-10-18T02:44:18.670Z,72.90
2018-10-18T02:46:46.190Z,72.90
2018-10-18T02:49:13.846Z,72.80
2018-10-18T02:51:41.333Z,72.80
2018-10-18T02:54:08.973Z,72.80
2018-10-18T02:56:36.349Z,72.80
2018-10-18T02:59:04.422Z,73.00
2018-10-18T03:01:31.930Z,73.10
2018-10-18T03:03:59.513Z,73.10
2018-10-18T03:06:27.023Z,73.30
2018-10-18T03:08:54.566Z,73.30
2018-10-18T03:11:22.041Z,73.40
2018-10-18T03:13:49.594Z,73.40
2018-10-18T03:16:17.160Z,73.30
2018-10-18T03:18:44.638Z,73.40
2018-10-18T03:21:12.174Z,73.30
2018-10-18T03:23:39.654Z,73.30
2018-10-18T03:26:07.206Z,73.50
2018-10-18T03:28:34.666Z,73.50
2018-10-18T03:31:02.237Z,73.50
2018-10-18T03:33:29.682Z,74.20
2018-10-18T03:35:57.261Z,74.50
2018-10-18T03:38:24.712Z,74.60
2018-10-18T03:40:52.249Z,74.80
2018-10-18T03:43:19.867Z,74.70
2018-10-18T03:45:47.421Z,74.50
2018-10-18T03:48:14.927Z,74.40
2018-10-18T03:50:42.471Z,74.30
2018-10-18T03:53:09.978Z,74.40
2018-10-18T03:55:37.462Z,74.40
2018-10-18T03:58:05.110Z,74.50
2018-10-18T04:00:32.562Z,74.50
2018-10-18T04:03:00.106Z,74.40
2018-10-18T04:05:27.595Z,74.50
2018-10-18T04:07:55.117Z,75.20
2018-10-18T04:10:22.690Z,74.50
2018-10-18T04:12:50.294Z,74.30
2018-10-18T04:15:17.770Z,74.50
2018-10-18T04:17:45.337Z,74.50
2018-10-18T04:20:12.808Z,74.50
2018-10-18T04:22:40.361Z,74.60
2018-10-18T04:25:07.884Z,74.60
2018-10-18T04:27:35.464Z,74.60
2018-10-18T04:30:03.107Z,74.40
2018-10-18T04:32:30.564Z,74.50
2018-10-18T04:34:58.149Z,74.60
2018-10-18T04:37:25.653Z,74.50
2018-10-18T04:39:53.211Z,74.50
2018-10-18T04:42:20.840Z,74.60
2018-10-18T04:44:48.382Z,74.60
2018-10-18T04:47:15.938Z,74.60
2018-10-18T04:49:43.496Z,74.60
2018-10-18T04:52:10.981Z,74.60
2018-10-18T04:54:38.554Z,74.80
2018-10-18T04:57:06.209Z,74.90
2018-10-18T04:59:34.802Z,75.20
2018-10-18T05:02:02.370Z,75.10
2018-10-18T05:04:29.897Z,75.10
2018-10-18T05:06:57.392Z,75.20
2018-10-18T05:09:25.028Z,75.30
2018-10-18T05:11:52.534Z,75.20
2018-10-18T05:14:20.118Z,75.20
2018-10-18T05:16:47.587Z,75.20
2018-10-18T05:19:15.202Z,75.30
2018-10-18T05:21:42.667Z,75.40
2018-10-18T05:24:10.145Z,75.40
2018-10-18T05:26:37.723Z,75.50
2018-10-18T05:29:05.310Z,75.50
2018-10-18T05:31:32.935Z,75.50
2018-10-18T05:34:00.442Z,75.70
2018-10-18T05:36:27.988Z,75.70
2018-10-18T05:38:55.465Z,75.90
2018-10-18T05:41:23.380Z,75.90
2018-10-18T05:43:50.874Z,75.90
2018-10-18T05:46:18.478Z,75.80
2018-10-18T05:48:45.981Z,76.00
2018-10-18T05:51:13.561Z,76.00
2018-10-18T05:53:41.081Z,76.50
2018-10-18T05:56:08.527Z,76.40
2018-10-18T05:58:36.105Z,76.30
2018-10-18T06:01:03.759Z,76.60
2018-10-18T06:03:31.281Z,77.30
2018-10-18T06:05:58.779Z,77.20
2018-10-18T06:08:26.373Z,77.40
2018-10-18T06:11:05.264Z,77.20
2018-10-18T06:13:32.812Z,77.30
2018-10-18T06:16:00.367Z,77.20
2018-10-18T06:18:27.926Z,77.00
2018-10-18T06:20:55.403Z,77.00
2018-10-18T06:23:22.920Z,77.00
2018-10-18T06:25:50.437Z,77.10
2018-10-18T06:28:17.998Z,77.00
2018-10-18T06:30:45.508Z,77.10
2018-10-18T06:33:13.033Z,77.10
2018-10-18T06:35:40.565Z,77.20
2018-10-18T06:38:08.101Z,77.30
2018-10-18T06:40:35.673Z,77.40
2018-10-18T06:43:03.622Z,77.50
2018-10-18T06:45:31.180Z,77.70
2018-10-18T06:47:58.862Z,77.60
2018-10-18T06:50:26.215Z,77.60
2018-10-18T06:52:53.700Z,77.60
2018-10-18T06:55:21.250Z,77.70
2018-10-18T06:57:48.731Z,77.80
2018-10-18T07:00:19.915Z,77.80
2018-10-18T07:02:47.434Z,77.70
2018-10-18T07:05:15.094Z,77.80
2018-10-18T07:07:43.217Z,77.90
2018-10-18T07:12:38.766Z,77.60
2018-10-18T07:15:07.255Z,78.30
2018-10-18T07:17:35.577Z,78.10
2018-10-18T07:20:03.425Z,78.40
2018-10-18T07:22:30.978Z,78.40
2018-10-18T07:24:58.465Z,78.20
2018-10-18T07:27:26.109Z,77.80
2018-10-18T07:29:53.619Z,78.10
2018-10-18T07:32:21.202Z,78.80
2018-10-18T07:34:48.721Z,78.80
2018-10-18T07:37:16.254Z,78.50
2018-10-18T07:39:43.802Z,78.70
2018-10-18T07:42:11.570Z,78.40
2018-10-18T07:44:38.986Z,78.20
2018-10-18T07:47:06.721Z,78.40
2018-10-18T07:49:34.193Z,78.80
2018-10-18T07:52:02.059Z,79.00
2018-10-18T07:54:29.642Z,79.00
2018-10-18T07:56:57.378Z,79.80
2018-10-18T07:59:25.117Z,79.60
2018-10-18T08:01:52.602Z,79.70
2018-10-18T08:04:20.160Z,80.00
2018-10-18T08:06:47.630Z,79.90
2018-10-18T08:09:15.203Z,80.10
2018-10-18T08:11:42.789Z,80.60
2018-10-18T08:14:10.957Z,80.50
2018-10-18T08:16:38.590Z,80.20
2018-10-18T08:19:06.149Z,79.90
2018-10-18T08:24:01.311Z,79.50
2018-10-18T08:26:28.907Z,79.80
2018-10-18T08:28:56.396Z,80.00
2018-10-18T08:31:24.146Z,79.70
2018-10-18T08:33:51.433Z,79.20
2018-10-18T08:36:19.032Z,78.20
2018-10-18T08:38:46.529Z,79.70
2018-10-18T08:43:41.550Z,78.10
2018-10-18T08:46:09.125Z,77.80
2018-10-18T08:48:36.629Z,76.40
2018-10-18T08:51:04.295Z,76.80
2018-10-18T08:53:31.883Z,74.80
2018-10-18T08:55:59.384Z,72.50
2018-10-18T08:58:27.067Z,70.70
2018-10-18T09:00:54.611Z,69.40
2018-10-18T09:03:22.148Z,68.60
2018-10-18T09:05:49.625Z,66.60
2018-10-18T09:08:17.242Z,66.70
2018-10-18T09:10:44.690Z,67.70
2018-10-18T09:13:12.257Z,65.50
2018-10-18T09:15:39.723Z,65.40
2018-10-18T09:18:07.302Z,64.90
2018-10-18T09:20:34.794Z,64.50
2018-10-18T09:23:02.618Z,64.30
2018-10-18T09:25:30.097Z,64.80
2018-10-18T09:27:57.642Z,64.10
2018-10-18T09:30:25.250Z,65.70
2018-10-18T09:32:52.704Z,65.20
2018-10-18T09:35:20.272Z,64.10
2018-10-18T09:37:47.837Z,65.60
2018-10-18T09:40:15.390Z,65.40
2018-10-18T09:42:42.943Z,66.20
2018-10-18T09:45:11.531Z,65.40
2018-10-18T09:47:39.017Z,64.90
2018-10-18T09:50:06.763Z,67.20
2018-10-18T09:52:34.261Z,66.60
2018-10-18T09:55:02.131Z,67.50
2018-10-18T09:57:29.557Z,67.60
2018-10-18T09:59:57.136Z,66.40
2018-10-18T10:02:30.350Z,67.80
2018-10-18T10:04:57.934Z,67.70
2018-10-18T10:07:25.426Z,66.50
2018-10-18T10:09:52.993Z,66.10
2018-10-18T10:12:20.484Z,67.30
2018-10-18T10:14:48.043Z,67.60
2018-10-18T10:17:15.563Z,67.20
2018-10-18T10:19:43.050Z,67.20
2018-10-18T10:22:10.607Z,64.90
2018-10-18T10:24:38.148Z,65.40
2018-10-18T10:27:05.754Z,66.50
2018-10-18T10:29:33.248Z,65.90
2018-10-18T10:32:01.094Z,65.10
2018-10-18T10:34:28.562Z,66.10
2018-10-18T10:36:56.162Z,63.80
2018-10-18T10:39:23.623Z,63.90
2018-10-18T10:41:51.247Z,63.80
2018-10-18T10:44:18.794Z,62.60
2018-10-18T10:46:46.324Z,63.20
2018-10-18T10:49:13.914Z,63.90
2018-10-18T10:51:41.369Z,62.90
2018-10-18T10:54:09.362Z,62.20
2018-10-18T10:56:36.851Z,62.70
2018-10-18T10:59:12.281Z,61.60
2018-10-18T11:01:39.849Z,62.70
2018-10-18T11:04:07.346Z,62.60
2018-10-18T11:06:34.934Z,62.60
2018-10-18T11:09:02.805Z,62.60
2018-10-18T11:11:30.291Z,62.60
2018-10-18T11:13:57.882Z,61.60
2018-10-18T11:16:25.371Z,59.80
2018-10-18T11:18:53.003Z,60.00
2018-10-18T11:21:20.544Z,59.80
2018-10-18T11:23:48.127Z,60.00
2018-10-18T11:26:15.634Z,59.50
2018-10-18T11:28:43.241Z,59.10
2018-10-18T11:31:10.925Z,59.30
2018-10-18T11:33:38.510Z,59.80
2018-10-18T11:36:06.104Z,59.70
2018-10-18T11:38:33.682Z,59.50
2018-10-18T11:41:01.536Z,59.80
2018-10-18T11:43:29.285Z,59.00
2018-10-18T11:45:56.760Z,59.10
2018-10-18T11:48:24.359Z,58.90
2018-10-18T11:50:52.040Z,58.30
2018-10-18T11:53:19.556Z,58.30
2018-10-18T11:55:50.322Z,58.40
2018-10-18T11:58:17.901Z,58.90
2018-10-18T12:00:45.517Z,58.40
2018-10-18T12:03:13.038Z,59.40
2018-10-18T12:05:40.666Z,58.30
2018-10-18T12:08:08.216Z,57.80
2018-10-18T12:10:35.802Z,58.10
2018-10-18T12:13:03.405Z,57.30
2018-10-18T12:15:31.009Z,57.20
2018-10-18T12:17:58.617Z,57.20
2018-10-18T12:20:26.164Z,55.90
2018-10-18T12:22:53.793Z,55.90
2018-10-18T12:25:21.287Z,56.00
2018-10-18T12:27:48.852Z,56.20
2018-10-18T12:30:16.403Z,56.00
2018-10-18T12:32:43.962Z,56.00
2018-10-18T12:35:11.554Z,55.80
2018-10-18T12:37:39.090Z,56.00
2018-10-18T12:40:07.718Z,56.00
2018-10-18T12:42:36.678Z,56.40
2018-10-18T12:45:04.839Z,55.60
2018-10-18T12:47:32.454Z,54.70
2018-10-18T12:49:59.972Z,55.20
2018-10-18T12:52:27.466Z,54.50
2018-10-18T12:54:55.057Z,54.40
2018-10-18T12:57:22.670Z,54.00
2018-10-18T12:59:50.229Z,54.00
2018-10-18T13:02:17.892Z,54.60
2018-10-18T13:04:45.389Z,53.90
2018-10-18T13:07:12.958Z,54.70
2018-10-18T13:09:40.598Z,54.80
2018-10-18T13:12:08.157Z,53.80
2018-10-18T13:14:35.743Z,55.10
2018-10-18T13:17:03.272Z,55.00
2018-10-18T13:19:30.897Z,55.50
2018-10-18T13:21:58.430Z,54.30
2018-10-18T13:24:26.020Z,54.60
2018-10-18T13:26:53.598Z,54.60
2018-10-18T13:29:21.266Z,55.00
2018-10-18T13:31:48.830Z,54.50
2018-10-18T13:34:16.406Z,54.50
2018-10-18T13:36:43.918Z,54.90
2018-10-18T13:39:13.363Z,54.50
2018-10-18T13:41:40.954Z,53.30
2018-10-18T13:44:08.708Z,53.70
2018-10-18T13:46:36.925Z,54.20
2018-10-18T13:49:04.766Z,53.60
2018-10-18T13:51:32.407Z,54.30
2018-10-18T13:54:00.062Z,54.30
2018-10-18T13:56:27.667Z,55.20
2018-10-18T13:58:55.288Z,54.40
2018-10-18T14:01:22.913Z,54.30
2018-10-18T14:03:50.493Z,54.10
2018-10-18T14:06:18.119Z,54.00
2018-10-18T14:08:45.734Z,53.30
2018-10-18T14:11:13.861Z,53.70
2018-10-18T14:13:41.418Z,54.30
2018-10-18T14:16:09.031Z,53.80
2018-10-18T14:18:36.574Z,54.40
2018-10-18T14:21:04.729Z,53.60
2018-10-18T14:23:32.218Z,54.40
2018-10-18T14:26:00.112Z,54.30
2018-10-18T14:28:27.557Z,53.40
2018-10-18T14:30:55.205Z,53.30
2018-10-18T14:33:22.677Z,53.60
2018-10-18T14:35:50.217Z,53.30
2018-10-18T14:38:17.928Z,54.20
2018-10-18T14:40:45.389Z,54.60
2018-10-18T14:43:13.250Z,54.50
2018-10-18T14:45:40.758Z,55.20
2018-10-18T14:48:08.373Z,54.70
2018-10-18T14:50:36.041Z,54.70
2018-10-18T14:53:03.574Z,55.10
2018-10-18T14:55:31.431Z,55.00
2018-10-18T14:57:59.071Z,55.60
2018-10-18T15:00:26.575Z,55.90
2018-10-18T15:02:54.207Z,55.80
2018-10-18T15:05:21.814Z,55.60
2018-10-18T15:07:49.349Z,56.40
2018-10-18T15:10:16.869Z,55.60
2018-10-18T15:12:44.556Z,55.80
2018-10-18T15:15:13.220Z,56.30
2018-10-18T15:17:40.985Z,55.70
2018-10-18T15:20:09.411Z,56.30
2018-10-18T15:22:37.131Z,56.00
2018-10-18T15:25:05.986Z,56.30
2018-10-18T15:27:33.567Z,56.70
2018-10-18T15:30:01.463Z,56.10
2018-10-18T15:32:29.021Z,56.40
2018-10-18T15:34:56.719Z,56.40
2018-10-18T15:37:24.179Z,56.50
2018-10-18T15:39:51.700Z,56.50
2018-10-18T15:42:19.350Z,56.20
2018-10-18T15:44:46.848Z,57.00
2018-10-18T15:47:14.486Z,57.20
2018-10-18T15:49:42.051Z,57.50
2018-10-18T15:52:09.591Z,57.80
2018-10-18T15:54:37.185Z,58.30
2018-10-18T15:57:05.080Z,58.50
2018-10-18T15:59:32.563Z,58.80
2018-10-18T16:02:00.239Z,58.90
2018-10-18T16:04:27.761Z,59.50
2018-10-18T16:06:55.346Z,59.50
2018-10-18T16:09:22.849Z,59.80
2018-10-18T16:11:50.497Z,60.10
2018-10-18T16:14:18.101Z,60.50
2018-10-18T16:16:45.699Z,61.00
2018-10-18T16:19:13.211Z,61.30
2018-10-18T16:21:40.833Z,61.50
2018-10-18T16:24:08.621Z,61.80
2018-10-18T16:26:36.136Z,62.10
2018-10-18T16:29:04.080Z,62.60
2018-10-18T16:31:31.694Z,63.00
2018-10-18T16:33:59.307Z,63.70
2018-10-18T16:36:26.888Z,64.20
2018-10-18T16:38:54.510Z,64.20
2018-10-18T16:41:22.177Z,64.40
2018-10-18T16:43:49.794Z,64.60
2018-10-18T16:46:17.365Z,64.80
2018-10-18T16:48:44.965Z,64.80
2018-10-18T16:51:12.505Z,64.80
2018-10-18T16:53:40.059Z,64.90
2018-10-18T16:56:07.741Z,65.30
2018-10-18T16:58:35.196Z,66.00
2018-10-18T17:01:02.865Z,65.60
2018-10-18T17:03:30.365Z,65.90
2018-10-18T17:05:58.051Z,66.00
2018-10-18T17:08:25.504Z,66.00
2018-10-18T17:10:53.026Z,66.10
2018-10-18T17:13:20.651Z,66.10
2018-10-18T17:15:48.244Z,66.70
2018-10-18T17:18:15.890Z,65.70
2018-10-18T17:20:43.519Z,65.50
2018-10-18T17:23:10.943Z,65.90
2018-10-18T17:25:38.565Z,65.90
2018-10-18T17:28:06.100Z,66.10
2018-10-18T17:30:33.718Z,66.10
2018-10-18T17:33:01.439Z,66.30
2018-10-18T17:35:29.119Z,66.40
2018-10-18T17:37:56.739Z,66.50
2018-10-18T17:40:24.353Z,66.70
2018-10-18T17:42:52.063Z,66.60
2018-10-18T17:45:19.620Z,66.70
2018-10-18T17:47:47.280Z,66.70
2018-10-18T17:50:15.011Z,66.60
2018-10-18T17:52:42.548Z,66.60
2018-10-18T17:55:10.102Z,66.70
2018-10-18T17:57:38.074Z,66.80
2018-10-18T18:00:09.035Z,66.90
2018-10-18T18:02:36.670Z,66.80
2018-10-18T18:05:04.450Z,66.90
2018-10-18T18:07:32.098Z,67.30
2018-10-18T18:09:59.706Z,67.40
2018-10-18T18:12:27.360Z,67.40
2018-10-18T18:14:54.994Z,67.50
2018-10-18T18:17:22.604Z,67.10
2018-10-18T18:19:50.156Z,67.00
2018-10-18T18:22:17.671Z,66.60
2018-10-18T18:24:45.343Z,66.80
2018-10-18T18:27:12.963Z,66.90
2018-10-18T18:29:40.535Z,66.80
2018-10-18T18:32:08.167Z,66.90
2018-10-18T18:34:36.022Z,66.70
2018-10-18T18:37:03.786Z,66.40
2018-10-18T18:39:31.403Z,66.50
2018-10-18T18:41:59.087Z,66.80
2018-10-18T18:44:26.818Z,66.50
2018-10-18T18:46:54.376Z,66.70
2018-10-18T18:49:22.105Z,66.80
2018-10-18T18:51:49.763Z,67.20
2018-10-18T18:54:17.314Z,67.20
2018-10-18T18:56:44.907Z,66.90
2018-10-18T18:59:12.533Z,66.80
2018-10-18T19:01:40.050Z,66.40
2018-10-18T19:04:07.675Z,66.30
2018-10-18T19:06:35.326Z,65.90
2018-10-18T19:09:03.982Z,65.80
2018-10-18T19:11:31.594Z,65.70
2018-10-18T19:13:59.169Z,65.70
2018-10-18T19:16:26.942Z,65.60
2018-10-18T19:18:54.590Z,65.50
2018-10-18T19:21:22.178Z,65.70
2018-10-18T19:23:49.707Z,65.60
2018-10-18T19:26:17.388Z,65.70
2018-10-18T19:28:45.015Z,65.90
2018-10-18T19:31:12.581Z,65.80
2018-10-18T19:33:40.158Z,66.10
2018-10-18T19:36:07.702Z,66.50
2018-10-18T19:38:35.421Z,67.20
2018-10-18T19:41:02.958Z,68.50
2018-10-18T19:43:30.616Z,69.80
2018-10-18T19:45:58.192Z,70.80
2018-10-18T19:48:25.748Z,71.70
2018-10-18T19:50:53.297Z,72.90
2018-10-18T19:53:20.882Z,73.80
2018-10-18T19:55:48.514Z,74.60
2018-10-18T19:58:16.339Z,75.00
2018-10-18T20:00:43.732Z,75.50
2018-10-18T20:03:11.297Z,75.80
2018-10-18T20:05:38.910Z,76.30
2018-10-18T20:08:06.470Z,76.60
2018-10-18T20:10:34.173Z,76.70
2018-10-18T20:13:02.075Z,76.90
2018-10-18T20:15:29.632Z,77.00
2018-10-18T20:17:57.194Z,77.50
2018-10-18T20:20:24.813Z,77.80
2018-10-18T20:22:52.367Z,78.30
2018-10-18T20:25:20.093Z,78.30
2018-10-18T20:27:47.538Z,78.50
2018-10-18T20:30:15.387Z,78.20
2018-10-18T20:32:42.977Z,77.70
2018-10-18T20:35:11.119Z,77.30
2018-10-18T20:37:39.357Z,76.80
2018-10-18T20:40:09.014Z,76.40
2018-10-18T20:42:36.701Z,75.90
2018-10-18T20:45:05.196Z,76.10
2018-10-18T20:47:32.874Z,76.20
2018-10-18T20:50:00.292Z,76.60
2018-10-18T20:52:27.994Z,76.80
2018-10-18T20:54:55.462Z,76.40
2018-10-18T20:57:23.068Z,75.90
2018-10-18T20:59:50.584Z,75.80
2018-10-18T21:02:18.211Z,75.20
2018-10-18T21:04:45.757Z,75.40
2018-10-18T21:07:13.404Z,74.80
2018-10-18T21:09:40.894Z,74.50
2018-10-18T21:12:08.545Z,74.80
2018-10-18T21:14:35.998Z,75.80
2018-10-18T21:17:03.676Z,76.50
2018-10-18T21:19:31.195Z,77.30
2018-10-18T21:21:58.785Z,77.20
2018-10-18T21:24:26.386Z,76.60
2018-10-18T21:26:54.014Z,76.00
2018-10-18T21:29:21.519Z,75.80
2018-10-18T21:31:49.023Z,75.40
2018-10-18T21:34:16.592Z,76.80
2018-10-18T21:36:44.105Z,78.50
2018-10-18T21:39:11.803Z,79.10
2018-10-18T21:41:39.373Z,80.40
2018-10-18T21:44:06.939Z,81.00
2018-10-18T21:46:34.403Z,81.70
2018-10-18T21:49:02.163Z,82.20
2018-10-18T21:51:29.688Z,82.30
2018-10-18T21:53:57.307Z,82.30
2018-10-18T21:56:24.864Z,82.30
2018-10-18T21:58:52.438Z,82.50
2018-10-18T22:01:19.984Z,82.50
2018-10-18T22:03:47.574Z,82.80
2018-10-18T22:06:15.169Z,83.00
2018-10-18T22:08:42.671Z,83.30
2018-10-18T22:11:10.472Z,83.80
2018-10-18T22:13:37.955Z,84.00
2018-10-18T22:16:05.505Z,84.80
2018-10-18T22:18:33.015Z,85.30
2018-10-18T22:21:00.998Z,85.40
2018-10-18T22:23:28.470Z,85.50
2018-10-18T22:25:56.073Z,85.70
2018-10-18T22:28:24.230Z,86.20
2018-10-18T22:30:51.862Z,86.80
2018-10-18T22:33:19.393Z,87.10
2018-10-18T22:35:46.968Z,87.50
2018-10-18T22:38:14.546Z,87.80
2018-10-18T22:40:42.276Z,87.90
2018-10-18T22:43:09.893Z,88.10
2018-10-18T22:45:37.372Z,88.10
2018-10-18T22:48:05.129Z,88.40
2018-10-18T22:50:32.599Z,88.40
2018-10-18T22:53:00.281Z,88.50
2018-10-18T22:55:27.723Z,88.60
2018-10-18T22:57:55.297Z,88.70
2018-10-18T23:00:22.844Z,88.60
2018-10-18T23:02:50.437Z,88.60
2018-10-18T23:05:17.946Z,88.50
2018-10-18T23:07:45.490Z,88.10
2018-10-18T23:10:12.958Z,87.70
2018-10-18T23:12:40.509Z,87.60
2018-10-18T23:15:09.080Z,87.60
2018-10-18T23:17:36.898Z,87.70
2018-10-18T23:20:05.400Z,88.10
2018-10-18T23:22:32.976Z,88.00
2018-10-18T23:25:00.444Z,87.70
2018-10-18T23:27:30.302Z,87.30
2018-10-18T23:29:57.873Z,86.00
2018-10-18T23:32:25.435Z,85.10
2018-10-18T23:34:53.031Z,84.20
2018-10-18T23:37:20.765Z,83.60
2018-10-18T23:39:48.306Z,82.90
2018-10-18T23:42:15.891Z,83.50
2018-10-18T23:44:43.502Z,83.80
2018-10-18T23:47:11.061Z,83.70
2018-10-18T23:49:38.570Z,82.90
2018-10-18T23:52:06.045Z,82.30
2018-10-18T23:54:33.617Z,81.60
2018-10-18T23:57:01.407Z,82.60
2018-10-18T23:59:28.870Z,83.30
